Airport View

Enter AWOS ICAO identifier for current METAR.

ex. KFNL

KCGC 210045Z AUTO 09003KT 10SM CLR 24/20 A3014 RMK AO2

21 Sep 2019 00:47

Frequency: 118.325

Phone: 352-563-6600

Other Area AWOS: KINF - KBKV - KOCF - KX60

TAF KLEE 202320Z 2100/2124 08010KT P6SM FEW045 FM210200 07006KT P6SM SCT040 FM211500 08013G20KT P6SM SCT030